sensor_id;sensor_type;location;lat;lon;timestamp;temperature;humidity
30069;DHT22;16894;49.456;10.644;2023-02-08T00:01:20;-5.50;99.90
30069;DHT22;16894;49.456;10.644;2023-02-08T00:03:47;-5.50;99.90
30069;DHT22;16894;49.456;10.644;2023-02-08T00:06:12;-5.50;99.90
30069;DHT22;16894;49.456;10.644;2023-02-08T00:08:39;-5.50;99.90
30069;DHT22;16894;49.456;10.644;2023-02-08T00:11:05;-5.60;99.90
30069;DHT22;16894;49.456;10.644;2023-02-08T00:13:32;-5.60;99.90
30069;DHT22;16894;49.456;10.644;2023-02-08T00:15:59;-5.60;99.90
30069;DHT22;16894;49.456;10.644;2023-02-08T00:18:25;-5.60;99.90
30069;DHT22;16894;49.456;10.644;2023-02-08T00:20:50;-5.70;99.90
30069;DHT22;16894;49.456;10.644;2023-02-08T00:23:17;-5.70;99.90
30069;DHT22;16894;49.456;10.644;2023-02-08T00:25:42;-5.80;99.90
30069;DHT22;16894;49.456;10.644;2023-02-08T00:28:12;-5.90;99.90
30069;DHT22;16894;49.456;10.644;2023-02-08T00:30:38;-5.90;99.90
30069;DHT22;16894;49.456;10.644;2023-02-08T00:33:04;-5.80;99.90
30069;DHT22;16894;49.456;10.644;2023-02-08T00:35:30;-5.90;99.90
30069;DHT22;16894;49.456;10.644;2023-02-08T00:37:56;-5.90;99.90
30069;DHT22;16894;49.456;10.644;2023-02-08T00:40:22;-5.90;99.90
30069;DHT22;16894;49.456;10.644;2023-02-08T00:42:48;-5.90;99.90
30069;DHT22;16894;49.456;10.644;2023-02-08T00:45:13;-5.90;99.90
30069;DHT22;16894;49.456;10.644;2023-02-08T00:47:39;-6.00;99.90
30069;DHT22;16894;49.456;10.644;2023-02-08T00:50:05;-6.10;99.90
30069;DHT22;16894;49.456;10.644;2023-02-08T00:52:31;-6.10;99.90
30069;DHT22;16894;49.456;10.644;2023-02-08T00:54:56;-6.00;99.90
30069;DHT22;16894;49.456;10.644;2023-02-08T00:57:22;-6.00;99.90
30069;DHT22;16894;49.456;10.644;2023-02-08T00:59:48;-6.00;99.90
30069;DHT22;16894;49.456;10.644;2023-02-08T01:02:13;-6.00;99.90
30069;DHT22;16894;49.456;10.644;2023-02-08T01:04:39;-6.00;99.90
30069;DHT22;16894;49.456;10.644;2023-02-08T01:07:05;-6.00;99.90
30069;DHT22;16894;49.456;10.644;2023-02-08T01:09:31;-6.10;99.90
30069;DHT22;16894;49.456;10.644;2023-02-08T01:11:57;-6.10;99.90
30069;DHT22;16894;49.456;10.644;2023-02-08T01:14:22;-6.10;99.90
30069;DHT22;16894;49.456;10.644;2023-02-08T01:16:48;-6.10;99.90
30069;DHT22;16894;49.456;10.644;2023-02-08T01:19:14;-6.10;99.90
30069;DHT22;16894;49.456;10.644;2023-02-08T01:21:41;-6.30;99.90
30069;DHT22;16894;49.456;10.644;2023-02-08T01:24:07;-6.20;99.90
30069;DHT22;16894;49.456;10.644;2023-02-08T01:26:33;-6.20;99.90
30069;DHT22;16894;49.456;10.644;2023-02-08T01:28:59;-6.20;99.90
30069;DHT22;16894;49.456;10.644;2023-02-08T01:31:36;-6.30;99.90
30069;DHT22;16894;49.456;10.644;2023-02-08T01:34:03;-6.30;99.90
30069;DHT22;16894;49.456;10.644;2023-02-08T01:36:29;-6.20;99.90
30069;DHT22;16894;49.456;10.644;2023-02-08T01:38:56;-6.20;99.90
30069;DHT22;16894;49.456;10.644;2023-02-08T01:41:31;-6.20;99.90
30069;DHT22;16894;49.456;10.644;2023-02-08T01:46:40;-6.20;99.90
30069;DHT22;16894;49.456;10.644;2023-02-08T01:49:26;-6.20;99.90
30069;DHT22;16894;49.456;10.644;2023-02-08T01:52:08;-6.20;99.90
30069;DHT22;16894;49.456;10.644;2023-02-08T01:54:40;-6.30;99.90
30069;DHT22;16894;49.456;10.644;2023-02-08T01:57:07;-6.20;99.90
30069;DHT22;16894;49.456;10.644;2023-02-08T01:59:36;-6.30;99.90
30069;DHT22;16894;49.456;10.644;2023-02-08T02:02:04;-6.30;99.90
30069;DHT22;16894;49.456;10.644;2023-02-08T02:04:32;-6.40;99.90
30069;DHT22;16894;49.456;10.644;2023-02-08T02:07:00;-6.40;99.90
30069;DHT22;16894;49.456;10.644;2023-02-08T02:09:39;-6.40;99.90
30069;DHT22;16894;49.456;10.644;2023-02-08T02:12:07;-6.40;99.90
30069;DHT22;16894;49.456;10.644;2023-02-08T02:14:34;-6.40;99.90
30069;DHT22;16894;49.456;10.644;2023-02-08T02:17:01;-6.40;99.90
30069;DHT22;16894;49.456;10.644;2023-02-08T02:27:39;-6.40;99.90
30069;DHT22;16894;49.456;10.644;2023-02-08T02:30:48;-6.40;99.90
30069;DHT22;16894;49.456;10.644;2023-02-08T02:38:57;-6.40;99.90
30069;DHT22;16894;49.456;10.644;2023-02-08T02:41:46;-6.40;99.90
30069;DHT22;16894;49.456;10.644;2023-02-08T02:44:52;-6.50;99.90
30069;DHT22;16894;49.456;10.644;2023-02-08T02:50:22;-6.70;99.90
30069;DHT22;16894;49.456;10.644;2023-02-08T02:53:06;-6.80;99.90
30069;DHT22;16894;49.456;10.644;2023-02-08T02:55:37;-6.70;99.90
30069;DHT22;16894;49.456;10.644;2023-02-08T02:58:06;-6.80;99.90
30069;DHT22;16894;49.456;10.644;2023-02-08T03:00:33;-6.80;99.90
30069;DHT22;16894;49.456;10.644;2023-02-08T03:02:59;-6.80;99.90
30069;DHT22;16894;49.456;10.644;2023-02-08T03:05:25;-6.70;99.90
30069;DHT22;16894;49.456;10.644;2023-02-08T03:16:25;-6.60;99.90
30069;DHT22;16894;49.456;10.644;2023-02-08T03:19:36;-6.70;99.90
30069;DHT22;16894;49.456;10.644;2023-02-08T03:22:12;-6.70;99.90
30069;DHT22;16894;49.456;10.644;2023-02-08T03:25:00;-6.70;99.90
30069;DHT22;16894;49.456;10.644;2023-02-08T03:28:06;-6.70;99.90
30069;DHT22;16894;49.456;10.644;2023-02-08T03:30:44;-6.70;99.90
30069;DHT22;16894;49.456;10.644;2023-02-08T03:33:28;-6.70;99.90
30069;DHT22;16894;49.456;10.644;2023-02-08T03:36:05;-6.70;99.90
30069;DHT22;16894;49.456;10.644;2023-02-08T03:38:39;-6.70;99.90
30069;DHT22;16894;49.456;10.644;2023-02-08T03:41:12;-6.70;99.90
30069;DHT22;16894;49.456;10.644;2023-02-08T03:43:52;-6.70;99.90
30069;DHT22;16894;49.456;10.644;2023-02-08T03:46:24;-6.80;99.90
30069;DHT22;16894;49.456;10.644;2023-02-08T03:48:58;-6.80;99.90
30069;DHT22;16894;49.456;10.644;2023-02-08T03:51:27;-6.80;99.90
30069;DHT22;16894;49.456;10.644;2023-02-08T03:53:56;-6.80;99.90
30069;DHT22;16894;49.456;10.644;2023-02-08T03:56:45;-6.80;99.90
30069;DHT22;16894;49.456;10.644;2023-02-08T03:59:22;-6.80;99.90
30069;DHT22;16894;49.456;10.644;2023-02-08T04:01:56;-6.80;99.90
30069;DHT22;16894;49.456;10.644;2023-02-08T04:04:25;-6.70;99.90
30069;DHT22;16894;49.456;10.644;2023-02-08T04:06:53;-6.70;99.90
30069;DHT22;16894;49.456;10.644;2023-02-08T04:09:19;-6.70;99.90
30069;DHT22;16894;49.456;10.644;2023-02-08T04:11:44;-6.70;99.90
30069;DHT22;16894;49.456;10.644;2023-02-08T04:14:10;-6.80;99.90
30069;DHT22;16894;49.456;10.644;2023-02-08T04:16:35;-6.80;99.90
30069;DHT22;16894;49.456;10.644;2023-02-08T04:19:01;-6.80;99.90
30069;DHT22;16894;49.456;10.644;2023-02-08T04:21:27;-6.80;99.90
30069;DHT22;16894;49.456;10.644;2023-02-08T04:23:52;-6.90;99.90
30069;DHT22;16894;49.456;10.644;2023-02-08T04:26:18;-6.90;99.90
30069;DHT22;16894;49.456;10.644;2023-02-08T04:28:43;-7.00;99.90
30069;DHT22;16894;49.456;10.644;2023-02-08T04:31:09;-6.90;99.90
30069;DHT22;16894;49.456;10.644;2023-02-08T04:33:35;-6.90;99.90
30069;DHT22;16894;49.456;10.644;2023-02-08T04:36:00;-6.90;99.90
30069;DHT22;16894;49.456;10.644;2023-02-08T04:38:26;-6.90;99.90
30069;DHT22;16894;49.456;10.644;2023-02-08T04:40:51;-6.90;99.90
30069;DHT22;16894;49.456;10.644;2023-02-08T04:43:17;-6.90;99.90
30069;DHT22;16894;49.456;10.644;2023-02-08T04:45:43;-6.90;99.90
30069;DHT22;16894;49.456;10.644;2023-02-08T04:48:08;-6.90;99.90
30069;DHT22;16894;49.456;10.644;2023-02-08T04:50:34;-6.90;99.90
30069;DHT22;16894;49.456;10.644;2023-02-08T04:53:00;-7.00;99.90
30069;DHT22;16894;49.456;10.644;2023-02-08T04:55:26;-7.00;99.90
30069;DHT22;16894;49.456;10.644;2023-02-08T04:57:52;-7.00;99.90
30069;DHT22;16894;49.456;10.644;2023-02-08T05:00:18;-7.00;99.90
30069;DHT22;16894;49.456;10.644;2023-02-08T05:02:44;-7.00;99.90
30069;DHT22;16894;49.456;10.644;2023-02-08T05:05:10;-7.10;99.90
30069;DHT22;16894;49.456;10.644;2023-02-08T05:07:36;-7.10;99.90
30069;DHT22;16894;49.456;10.644;2023-02-08T05:10:03;-7.20;99.90
30069;DHT22;16894;49.456;10.644;2023-02-08T05:12:29;-7.10;99.90
30069;DHT22;16894;49.456;10.644;2023-02-08T05:14:54;-7.20;99.90
30069;DHT22;16894;49.456;10.644;2023-02-08T05:17:20;-7.40;99.90
30069;DHT22;16894;49.456;10.644;2023-02-08T05:19:46;-7.60;99.90
30069;DHT22;16894;49.456;10.644;2023-02-08T05:22:11;-7.60;99.90
30069;DHT22;16894;49.456;10.644;2023-02-08T05:24:37;-7.50;99.90
30069;DHT22;16894;49.456;10.644;2023-02-08T05:27:02;-7.40;99.90
30069;DHT22;16894;49.456;10.644;2023-02-08T05:29:28;-7.40;99.90
30069;DHT22;16894;49.456;10.644;2023-02-08T05:31:54;-7.50;99.90
30069;DHT22;16894;49.456;10.644;2023-02-08T05:34:20;-7.60;99.90
30069;DHT22;16894;49.456;10.644;2023-02-08T05:36:45;-7.60;99.90
30069;DHT22;16894;49.456;10.644;2023-02-08T05:39:11;-7.70;99.90
30069;DHT22;16894;49.456;10.644;2023-02-08T05:41:36;-7.70;99.90
30069;DHT22;16894;49.456;10.644;2023-02-08T05:44:02;-7.60;99.90
30069;DHT22;16894;49.456;10.644;2023-02-08T05:46:28;-7.60;99.90
30069;DHT22;16894;49.456;10.644;2023-02-08T05:48:54;-7.60;99.90
30069;DHT22;16894;49.456;10.644;2023-02-08T05:51:19;-7.50;99.90
30069;DHT22;16894;49.456;10.644;2023-02-08T05:53:45;-7.40;99.90
30069;DHT22;16894;49.456;10.644;2023-02-08T05:56:11;-7.30;99.90
30069;DHT22;16894;49.456;10.644;2023-02-08T05:58:37;-7.30;99.90
30069;DHT22;16894;49.456;10.644;2023-02-08T06:01:10;-7.30;99.90
30069;DHT22;16894;49.456;10.644;2023-02-08T06:03:36;-7.20;99.90
30069;DHT22;16894;49.456;10.644;2023-02-08T06:06:03;-7.30;99.90
30069;DHT22;16894;49.456;10.644;2023-02-08T06:08:28;-7.40;99.90
30069;DHT22;16894;49.456;10.644;2023-02-08T06:10:54;-7.50;99.90
30069;DHT22;16894;49.456;10.644;2023-02-08T06:13:19;-7.50;99.90
30069;DHT22;16894;49.456;10.644;2023-02-08T06:15:45;-7.50;99.90
30069;DHT22;16894;49.456;10.644;2023-02-08T06:18:11;-7.50;99.90
30069;DHT22;16894;49.456;10.644;2023-02-08T06:20:37;-7.50;99.90
30069;DHT22;16894;49.456;10.644;2023-02-08T06:23:03;-7.50;99.90
30069;DHT22;16894;49.456;10.644;2023-02-08T06:25:28;-7.50;99.90
30069;DHT22;16894;49.456;10.644;2023-02-08T06:27:54;-7.50;99.90
30069;DHT22;16894;49.456;10.644;2023-02-08T06:30:20;-7.60;99.90
30069;DHT22;16894;49.456;10.644;2023-02-08T06:32:45;-7.60;99.90
30069;DHT22;16894;49.456;10.644;2023-02-08T06:35:11;-7.60;99.90
30069;DHT22;16894;49.456;10.644;2023-02-08T06:37:37;-7.70;99.90
30069;DHT22;16894;49.456;10.644;2023-02-08T06:40:04;-7.70;99.90
30069;DHT22;16894;49.456;10.644;2023-02-08T06:42:30;-7.60;99.90
30069;DHT22;16894;49.456;10.644;2023-02-08T06:44:56;-7.50;99.90
30069;DHT22;16894;49.456;10.644;2023-02-08T06:47:23;-7.50;99.90
30069;DHT22;16894;49.456;10.644;2023-02-08T06:49:49;-7.50;99.90
30069;DHT22;16894;49.456;10.644;2023-02-08T06:52:15;-7.40;99.90
30069;DHT22;16894;49.456;10.644;2023-02-08T06:54:41;-7.40;99.90
30069;DHT22;16894;49.456;10.644;2023-02-08T06:57:07;-7.50;99.90
30069;DHT22;16894;49.456;10.644;2023-02-08T06:59:33;-7.60;99.90
30069;DHT22;16894;49.456;10.644;2023-02-08T07:01:59;-7.60;99.90
30069;DHT22;16894;49.456;10.644;2023-02-08T07:04:24;-7.60;99.90
30069;DHT22;16894;49.456;10.644;2023-02-08T07:06:50;-7.60;99.90
30069;DHT22;16894;49.456;10.644;2023-02-08T07:09:16;-7.50;99.90
30069;DHT22;16894;49.456;10.644;2023-02-08T07:11:42;-7.50;99.90
30069;DHT22;16894;49.456;10.644;2023-02-08T07:14:11;-7.50;99.90
30069;DHT22;16894;49.456;10.644;2023-02-08T07:16:37;-7.50;99.90
30069;DHT22;16894;49.456;10.644;2023-02-08T07:19:03;-7.40;99.90
30069;DHT22;16894;49.456;10.644;2023-02-08T07:21:28;-7.40;99.90
30069;DHT22;16894;49.456;10.644;2023-02-08T07:23:54;-7.40;99.90
30069;DHT22;16894;49.456;10.644;2023-02-08T07:26:20;-7.40;99.90
30069;DHT22;16894;49.456;10.644;2023-02-08T07:28:45;-7.40;99.90
30069;DHT22;16894;49.456;10.644;2023-02-08T07:31:13;-7.40;99.90
30069;DHT22;16894;49.456;10.644;2023-02-08T07:33:40;-7.40;99.90
30069;DHT22;16894;49.456;10.644;2023-02-08T07:36:07;-7.30;99.90
30069;DHT22;16894;49.456;10.644;2023-02-08T07:38:33;-7.30;99.90
30069;DHT22;16894;49.456;10.644;2023-02-08T07:41:03;-7.30;99.90
30069;DHT22;16894;49.456;10.644;2023-02-08T07:43:29;-7.20;99.90
30069;DHT22;16894;49.456;10.644;2023-02-08T07:45:55;-7.30;99.90
30069;DHT22;16894;49.456;10.644;2023-02-08T07:48:21;-7.30;99.90
30069;DHT22;16894;49.456;10.644;2023-02-08T07:50:46;-7.30;99.90
30069;DHT22;16894;49.456;10.644;2023-02-08T07:53:12;-7.20;99.90
30069;DHT22;16894;49.456;10.644;2023-02-08T07:55:38;-7.20;99.90
30069;DHT22;16894;49.456;10.644;2023-02-08T07:58:03;-7.10;99.90
30069;DHT22;16894;49.456;10.644;2023-02-08T08:00:29;-7.00;99.90
30069;DHT22;16894;49.456;10.644;2023-02-08T08:02:54;-6.90;99.90
30069;DHT22;16894;49.456;10.644;2023-02-08T08:05:20;-6.80;99.90
30069;DHT22;16894;49.456;10.644;2023-02-08T08:07:46;-6.70;99.90
30069;DHT22;16894;49.456;10.644;2023-02-08T08:10:11;-6.60;99.90
30069;DHT22;16894;49.456;10.644;2023-02-08T08:12:37;-6.50;99.90
30069;DHT22;16894;49.456;10.644;2023-02-08T08:15:03;-6.40;99.90
30069;DHT22;16894;49.456;10.644;2023-02-08T08:17:29;-6.30;99.90
30069;DHT22;16894;49.456;10.644;2023-02-08T08:19:55;-6.20;99.90
30069;DHT22;16894;49.456;10.644;2023-02-08T08:22:20;-6.00;99.90
30069;DHT22;16894;49.456;10.644;2023-02-08T08:24:46;-5.90;99.90
30069;DHT22;16894;49.456;10.644;2023-02-08T08:27:11;-5.80;99.90
30069;DHT22;16894;49.456;10.644;2023-02-08T08:29:37;-5.60;99.90
30069;DHT22;16894;49.456;10.644;2023-02-08T08:32:03;-5.40;99.90
30069;DHT22;16894;49.456;10.644;2023-02-08T08:34:30;-5.10;99.90
30069;DHT22;16894;49.456;10.644;2023-02-08T08:36:56;-4.90;99.90
30069;DHT22;16894;49.456;10.644;2023-02-08T08:39:23;-4.60;99.90
30069;DHT22;16894;49.456;10.644;2023-02-08T08:41:49;-4.30;99.90
30069;DHT22;16894;49.456;10.644;2023-02-08T08:44:15;-4.10;99.90
30069;DHT22;16894;49.456;10.644;2023-02-08T08:46:40;-4.00;99.90
30069;DHT22;16894;49.456;10.644;2023-02-08T08:49:06;-3.80;99.90
30069;DHT22;16894;49.456;10.644;2023-02-08T08:51:32;-3.50;99.90
30069;DHT22;16894;49.456;10.644;2023-02-08T08:54:04;-3.30;99.90
30069;DHT22;16894;49.456;10.644;2023-02-08T08:56:30;-3.10;99.90
30069;DHT22;16894;49.456;10.644;2023-02-08T08:58:56;-2.90;99.90
30069;DHT22;16894;49.456;10.644;2023-02-08T09:01:22;-2.50;99.90
30069;DHT22;16894;49.456;10.644;2023-02-08T09:03:47;-2.50;99.90
30069;DHT22;16894;49.456;10.644;2023-02-08T09:06:13;-2.50;99.90
30069;DHT22;16894;49.456;10.644;2023-02-08T09:08:39;-2.30;99.90
30069;DHT22;16894;49.456;10.644;2023-02-08T09:11:06;-2.20;99.90
30069;DHT22;16894;49.456;10.644;2023-02-08T09:13:33;-2.00;99.90
30069;DHT22;16894;49.456;10.644;2023-02-08T09:16:04;-2.00;99.90
30069;DHT22;16894;49.456;10.644;2023-02-08T09:18:30;-1.80;99.90
30069;DHT22;16894;49.456;10.644;2023-02-08T09:20:55;-1.60;99.90
30069;DHT22;16894;49.456;10.644;2023-02-08T09:23:21;-1.30;99.90
30069;DHT22;16894;49.456;10.644;2023-02-08T09:25:47;-1.20;99.90
30069;DHT22;16894;49.456;10.644;2023-02-08T09:28:12;-1.10;99.90
30069;DHT22;16894;49.456;10.644;2023-02-08T09:30:38;-0.90;99.90
30069;DHT22;16894;49.456;10.644;2023-02-08T09:33:04;-0.60;99.90
30069;DHT22;16894;49.456;10.644;2023-02-08T09:35:30;-0.50;99.90
30069;DHT22;16894;49.456;10.644;2023-02-08T09:37:56;-0.40;99.90
30069;DHT22;16894;49.456;10.644;2023-02-08T09:40:29;-0.40;99.90
30069;DHT22;16894;49.456;10.644;2023-02-08T09:43:09;-0.20;99.90
30069;DHT22;16894;49.456;10.644;2023-02-08T09:45:47;-0.10;99.90
30069;DHT22;16894;49.456;10.644;2023-02-08T09:48:25;0.00;99.90
30069;DHT22;16894;49.456;10.644;2023-02-08T09:50:55;0.20;99.90
30069;DHT22;16894;49.456;10.644;2023-02-08T09:53:34;0.20;99.90
30069;DHT22;16894;49.456;10.644;2023-02-08T09:56:05;0.20;99.40
30069;DHT22;16894;49.456;10.644;2023-02-08T09:58:43;0.20;99.90
30069;DHT22;16894;49.456;10.644;2023-02-08T10:01:33;0.20;99.90
30069;DHT22;16894;49.456;10.644;2023-02-08T10:04:11;0.20;99.40
30069;DHT22;16894;49.456;10.644;2023-02-08T10:06:40;0.40;99.80
30069;DHT22;16894;49.456;10.644;2023-02-08T10:09:11;0.40;98.40
30069;DHT22;16894;49.456;10.644;2023-02-08T10:30:34;1.10;99.90
30069;DHT22;16894;49.456;10.644;2023-02-08T10:33:21;1.20;99.80
30069;DHT22;16894;49.456;10.644;2023-02-08T10:35:49;1.40;99.40
30069;DHT22;16894;49.456;10.644;2023-02-08T10:40:50;1.40;99.40
30069;DHT22;16894;49.456;10.644;2023-02-08T10:51:37;1.70;97.10
30069;DHT22;16894;49.456;10.644;2023-02-08T10:54:03;1.70;98.30
30069;DHT22;16894;49.456;10.644;2023-02-08T10:58:56;1.80;99.10
30069;DHT22;16894;49.456;10.644;2023-02-08T11:01:23;2.00;99.40
30069;DHT22;16894;49.456;10.644;2023-02-08T11:04:24;2.10;98.10
30069;DHT22;16894;49.456;10.644;2023-02-08T11:06:50;2.20;98.70
30069;DHT22;16894;49.456;10.644;2023-02-08T11:09:29;2.20;98.40
30069;DHT22;16894;49.456;10.644;2023-02-08T11:11:57;2.10;98.50
30069;DHT22;16894;49.456;10.644;2023-02-08T11:14:46;2.20;97.80
30069;DHT22;16894;49.456;10.644;2023-02-08T11:17:30;2.40;96.90
30069;DHT22;16894;49.456;10.644;2023-02-08T11:19:57;2.40;97.20
30069;DHT22;16894;49.456;10.644;2023-02-08T11:22:25;2.80;96.70
30069;DHT22;16894;49.456;10.644;2023-02-08T11:25:05;3.00;95.70
30069;DHT22;16894;49.456;10.644;2023-02-08T11:27:34;3.30;96.00
30069;DHT22;16894;49.456;10.644;2023-02-08T11:32:39;3.30;94.70
30069;DHT22;16894;49.456;10.644;2023-02-08T11:37:54;3.00;95.30
30069;DHT22;16894;49.456;10.644;2023-02-08T11:40:33;2.90;95.80
30069;DHT22;16894;49.456;10.644;2023-02-08T11:43:00;2.60;95.70
30069;DHT22;16894;49.456;10.644;2023-02-08T11:45:26;2.20;95.90
30069;DHT22;16894;49.456;10.644;2023-02-08T11:47:53;2.10;96.70
30069;DHT22;16894;49.456;10.644;2023-02-08T11:50:35;2.10;97.10
30069;DHT22;16894;49.456;10.644;2023-02-08T11:53:04;2.20;97.60
30069;DHT22;16894;49.456;10.644;2023-02-08T11:55:32;2.30;97.10
30069;DHT22;16894;49.456;10.644;2023-02-08T11:58:23;2.40;96.60
30069;DHT22;16894;49.456;10.644;2023-02-08T12:01:03;2.40;95.80
30069;DHT22;16894;49.456;10.644;2023-02-08T12:03:35;2.40;95.90
30069;DHT22;16894;49.456;10.644;2023-02-08T12:06:27;2.20;96.10
30069;DHT22;16894;49.456;10.644;2023-02-08T12:09:22;2.20;96.70
30069;DHT22;16894;49.456;10.644;2023-02-08T12:12:15;2.40;95.90
30069;DHT22;16894;49.456;10.644;2023-02-08T12:26:22;3.20;94.90
30069;DHT22;16894;49.456;10.644;2023-02-08T12:31:54;3.10;94.10
30069;DHT22;16894;49.456;10.644;2023-02-08T12:37:41;3.40;93.00
30069;DHT22;16894;49.456;10.644;2023-02-08T12:54:26;4.40;92.10
30069;DHT22;16894;49.456;10.644;2023-02-08T12:56:54;4.50;91.20
30069;DHT22;16894;49.456;10.644;2023-02-08T13:01:57;4.80;88.90
30069;DHT22;16894;49.456;10.644;2023-02-08T13:04:38;5.40;88.40
30069;DHT22;16894;49.456;10.644;2023-02-08T13:07:17;6.50;85.00
30069;DHT22;16894;49.456;10.644;2023-02-08T13:10:03;7.50;81.10
30069;DHT22;16894;49.456;10.644;2023-02-08T13:13:10;8.20;76.90
30069;DHT22;16894;49.456;10.644;2023-02-08T13:15:40;9.00;73.10
30069;DHT22;16894;49.456;10.644;2023-02-08T13:18:27;8.70;70.70
30069;DHT22;16894;49.456;10.644;2023-02-08T13:21:00;9.00;69.60
30069;DHT22;16894;49.456;10.644;2023-02-08T13:23:40;9.40;68.80
30069;DHT22;16894;49.456;10.644;2023-02-08T13:26:14;9.40;66.90
30069;DHT22;16894;49.456;10.644;2023-02-08T13:28:47;10.10;67.10
30069;DHT22;16894;49.456;10.644;2023-02-08T13:31:16;10.50;64.60
30069;DHT22;16894;49.456;10.644;2023-02-08T13:34:13;10.40;65.30
30069;DHT22;16894;49.456;10.644;2023-02-08T13:36:47;9.90;66.00
30069;DHT22;16894;49.456;10.644;2023-02-08T13:39:40;9.70;65.00
30069;DHT22;16894;49.456;10.644;2023-02-08T13:42:17;9.70;65.20
30069;DHT22;16894;49.456;10.644;2023-02-08T13:44:49;9.40;65.00
30069;DHT22;16894;49.456;10.644;2023-02-08T13:47:42;9.70;65.10
30069;DHT22;16894;49.456;10.644;2023-02-08T13:50:39;9.30;64.50
30069;DHT22;16894;49.456;10.644;2023-02-08T13:53:07;9.00;64.90
30069;DHT22;16894;49.456;10.644;2023-02-08T14:01:26;9.10;65.60
30069;DHT22;16894;49.456;10.644;2023-02-08T14:06:49;9.20;63.70
30069;DHT22;16894;49.456;10.644;2023-02-08T14:15:04;8.90;64.90
30069;DHT22;16894;49.456;10.644;2023-02-08T14:17:30;8.20;66.00
30069;DHT22;16894;49.456;10.644;2023-02-08T14:20:05;7.90;66.20
30069;DHT22;16894;49.456;10.644;2023-02-08T14:22:38;7.10;68.10
30069;DHT22;16894;49.456;10.644;2023-02-08T14:25:14;6.10;70.60
30069;DHT22;16894;49.456;10.644;2023-02-08T14:27:49;5.20;73.50
30069;DHT22;16894;49.456;10.644;2023-02-08T14:32:49;4.30;75.20
30069;DHT22;16894;49.456;10.644;2023-02-08T14:35:20;3.90;77.40
30069;DHT22;16894;49.456;10.644;2023-02-08T14:37:47;3.60;79.40
30069;DHT22;16894;49.456;10.644;2023-02-08T14:43:26;3.20;80.10
30069;DHT22;16894;49.456;10.644;2023-02-08T14:45:51;3.10;80.30
30069;DHT22;16894;49.456;10.644;2023-02-08T14:48:30;3.00;82.70
30069;DHT22;16894;49.456;10.644;2023-02-08T14:56:35;2.80;83.70
30069;DHT22;16894;49.456;10.644;2023-02-08T14:59:05;2.70;84.80
30069;DHT22;16894;49.456;10.644;2023-02-08T15:03:58;2.60;84.70
30069;DHT22;16894;49.456;10.644;2023-02-08T15:09:17;2.50;85.50
30069;DHT22;16894;49.456;10.644;2023-02-08T15:11:54;2.50;85.40
30069;DHT22;16894;49.456;10.644;2023-02-08T15:14:21;2.50;87.50
30069;DHT22;16894;49.456;10.644;2023-02-08T15:16:47;2.40;87.80
30069;DHT22;16894;49.456;10.644;2023-02-08T15:19:27;2.40;87.60
30069;DHT22;16894;49.456;10.644;2023-02-08T15:21:53;2.40;85.40
30069;DHT22;16894;49.456;10.644;2023-02-08T15:24:22;2.30;86.60
30069;DHT22;16894;49.456;10.644;2023-02-08T15:26:51;2.30;87.70
30069;DHT22;16894;49.456;10.644;2023-02-08T15:29:28;2.20;88.80
30069;DHT22;16894;49.456;10.644;2023-02-08T15:31:54;2.20;88.20
30069;DHT22;16894;49.456;10.644;2023-02-08T15:34:23;2.10;88.80
30069;DHT22;16894;49.456;10.644;2023-02-08T15:36:54;2.10;89.70
30069;DHT22;16894;49.456;10.644;2023-02-08T15:41:57;2.00;90.00
30069;DHT22;16894;49.456;10.644;2023-02-08T15:44:28;2.00;90.10
30069;DHT22;16894;49.456;10.644;2023-02-08T15:46:58;1.90;90.20
30069;DHT22;16894;49.456;10.644;2023-02-08T15:49:53;1.80;90.40
30069;DHT22;16894;49.456;10.644;2023-02-08T15:52:26;1.80;90.20
30069;DHT22;16894;49.456;10.644;2023-02-08T15:54:52;1.70;90.30
30069;DHT22;16894;49.456;10.644;2023-02-08T16:00:20;1.50;91.80
30069;DHT22;16894;49.456;10.644;2023-02-08T16:02:56;1.50;91.80
30069;DHT22;16894;49.456;10.644;2023-02-08T16:05:28;1.40;91.80
30069;DHT22;16894;49.456;10.644;2023-02-08T16:07:55;1.30;91.70
30069;DHT22;16894;49.456;10.644;2023-02-08T16:10:32;1.30;92.20
30069;DHT22;16894;49.456;10.644;2023-02-08T16:13:01;1.30;92.40
30069;DHT22;16894;49.456;10.644;2023-02-08T16:15:43;1.20;92.30
30069;DHT22;16894;49.456;10.644;2023-02-08T16:20:58;1.00;92.70
30069;DHT22;16894;49.456;10.644;2023-02-08T16:23:36;1.00;94.30
30069;DHT22;16894;49.456;10.644;2023-02-08T16:26:20;0.90;93.50
30069;DHT22;16894;49.456;10.644;2023-02-08T16:29:00;0.80;93.90
30069;DHT22;16894;49.456;10.644;2023-02-08T16:31:29;0.70;94.00
30069;DHT22;16894;49.456;10.644;2023-02-08T16:34:03;0.60;94.20
30069;DHT22;16894;49.456;10.644;2023-02-08T16:36:36;0.50;95.00
30069;DHT22;16894;49.456;10.644;2023-02-08T16:44:33;0.40;95.60
30069;DHT22;16894;49.456;10.644;2023-02-08T16:47:00;0.30;96.20
30069;DHT22;16894;49.456;10.644;2023-02-08T16:49:26;0.30;97.20
30069;DHT22;16894;49.456;10.644;2023-02-08T16:51:56;0.20;96.10
30069;DHT22;16894;49.456;10.644;2023-02-08T16:54:22;0.20;97.20
30069;DHT22;16894;49.456;10.644;2023-02-08T16:56:50;0.20;97.30
30069;DHT22;16894;49.456;10.644;2023-02-08T16:59:26;0.20;97.20
30069;DHT22;16894;49.456;10.644;2023-02-08T17:01:53;0.10;97.80
30069;DHT22;16894;49.456;10.644;2023-02-08T17:04:21;0.10;97.80
30069;DHT22;16894;49.456;10.644;2023-02-08T17:06:47;0.00;97.80
30069;DHT22;16894;49.456;10.644;2023-02-08T17:09:13;0.00;98.70
30069;DHT22;16894;49.456;10.644;2023-02-08T17:11:39;0.00;98.60
30069;DHT22;16894;49.456;10.644;2023-02-08T17:14:06;0.00;98.70
30069;DHT22;16894;49.456;10.644;2023-02-08T17:16:33;0.00;99.30
30069;DHT22;16894;49.456;10.644;2023-02-08T17:19:00;-0.10;99.60
30069;DHT22;16894;49.456;10.644;2023-02-08T17:21:26;-0.10;99.90
30069;DHT22;16894;49.456;10.644;2023-02-08T17:23:54;-0.10;99.90
30069;DHT22;16894;49.456;10.644;2023-02-08T17:26:28;-0.20;99.90
30069;DHT22;16894;49.456;10.644;2023-02-08T17:28:57;-0.20;99.90
30069;DHT22;16894;49.456;10.644;2023-02-08T17:31:26;-0.30;99.90
30069;DHT22;16894;49.456;10.644;2023-02-08T17:33:53;-0.40;99.90
30069;DHT22;16894;49.456;10.644;2023-02-08T17:36:19;-0.50;99.90
30069;DHT22;16894;49.456;10.644;2023-02-08T17:38:45;-0.50;99.90
30069;DHT22;16894;49.456;10.644;2023-02-08T17:41:12;-0.60;99.90
30069;DHT22;16894;49.456;10.644;2023-02-08T17:43:38;-0.70;99.90
30069;DHT22;16894;49.456;10.644;2023-02-08T17:46:14;-0.70;99.90
30069;DHT22;16894;49.456;10.644;2023-02-08T17:48:40;-0.70;99.90
30069;DHT22;16894;49.456;10.644;2023-02-08T17:51:10;-0.60;99.90
30069;DHT22;16894;49.456;10.644;2023-02-08T17:53:38;-0.60;99.90
30069;DHT22;16894;49.456;10.644;2023-02-08T17:56:17;-0.60;99.90
30069;DHT22;16894;49.456;10.644;2023-02-08T17:58:44;-0.70;99.90
30069;DHT22;16894;49.456;10.644;2023-02-08T18:01:12;-0.70;99.90
30069;DHT22;16894;49.456;10.644;2023-02-08T18:03:38;-0.70;99.90